Weather

Clear
Friday 11/16 0%
Clear
Sunny. High near 60F. Winds light and variable.
Partly Cloudy
Saturday 11/17 0%
Partly Cloudy
Morning clouds will give way to sunshine for the afternoon. High 58F. Winds light and variable.
Clear
Sunday 11/18 10%
Clear
Sunny skies. High 54F. Winds light and variable.
Clear
Monday 11/19 0%
Clear
A mainly sunny sky. High 54F. Winds NW at 5 to 10 mph.
Partly Cloudy
Tuesday 11/20 0%
Partly Cloudy
Partly cloudy skies. High 54F. Winds light and variable.

 

 

For a detailed forecast click the banner below.

ballooncastlogo

 

 

Available data for KABQ from the past 2 hours
ALBUQUERQUE, NM
Metar
KABQ 161152Z 01006KT 10SM CLR 01/M07 A3019 RMK AO2 SLP206 T00111072 10050 20000 56005

11:52 UTC

Wind: 10° 6kt

Visibility: 10 SM

Sky:

Temp: 1 deg C / 33.8 deg F

Dewpoint: -7 deg C / 19.4 deg F

Pressure: 30.19 inHg

TAF
KABQ 161133Z 1612/1712 VRB03KT P6SM SKC FM162000 21006KT P6SM FEW250 FM170200 14004KT P6SM SCT250